地図

経路データ

SID SEASON NUMBER BASIN SUBBASIN NAME ISO_TIME NATURE LAT LON WMO_WIND WMO_PRES WMO_AGENCY TRACK_TYPE DIST2LAND LANDFALL IFLAG USA_AGENCY USA_ATCF_ID USA_LAT USA_LON USA_RECORD USA_STATUS USA_WIND USA_PRES USA_SSHS USA_R34_NE USA_R34_SE USA_R34_SW USA_R34_NW USA_R50_NE USA_R50_SE USA_R50_SW USA_R50_NW USA_R64_NE USA_R64_SE USA_R64_SW USA_R64_NW USA_POCI USA_ROCI USA_RMW USA_EYE TOKYO_LAT TOKYO_LON TOKYO_GRADE TOKYO_WIND TOKYO_PRES TOKYO_R50_DIR TOKYO_R50_LONG TOKYO_R50_SHORT TOKYO_R30_DIR TOKYO_R30_LONG TOKYO_R30_SHORT TOKYO_LAND CMA_LAT CMA_LON CMA_CAT CMA_WIND CMA_PRES HKO_LAT HKO_LON HKO_CAT HKO_WIND HKO_PRES NEWDELHI_LAT NEWDELHI_LON NEWDELHI_GRADE NEWDELHI_WIND NEWDELHI_PRES NEWDELHI_CI NEWDELHI_DP NEWDELHI_POCI REUNION_LAT REUNION_LON REUNION_TYPE REUNION_WIND REUNION_PRES REUNION_TNUM REUNION_CI REUNION_RMW REUNION_R34_NE REUNION_R34_SE REUNION_R34_SW REUNION_R34_NW REUNION_R50_NE REUNION_R50_SE REUNION_R50_SW REUNION_R50_NW REUNION_R64_NE REUNION_R64_SE REUNION_R64_SW REUNION_R64_NW BOM_LAT BOM_LON BOM_TYPE BOM_WIND BOM_PRES BOM_TNUM BOM_CI BOM_RMW BOM_R34_NE BOM_R34_SE BOM_R34_SW BOM_R34_NW BOM_R50_NE BOM_R50_SE BOM_R50_SW BOM_R50_NW BOM_R64_NE BOM_R64_SE BOM_R64_SW BOM_R64_NW BOM_ROCI BOM_POCI BOM_EYE BOM_POS_METHOD BOM_PRES_METHOD NADI_LAT NADI_LON NADI_CAT NADI_WIND NADI_PRES WELLINGTON_LAT WELLINGTON_LON WELLINGTON_WIND WELLINGTON_PRES DS824_LAT DS824_LON DS824_STAGE DS824_WIND DS824_PRES TD9636_LAT TD9636_LON TD9636_STAGE TD9636_WIND TD9636_PRES TD9635_LAT TD9635_LON TD9635_WIND TD9635_PRES TD9635_ROCI NEUMANN_LAT NEUMANN_LON NEUMANN_CLASS NEUMANN_WIND NEUMANN_PRES MLC_LAT MLC_LON MLC_CLASS MLC_WIND MLC_PRES USA_GUST BOM_GUST BOM_GUST_PER REUNION_GUST REUNION_GUST_PER USA_SEAHGT USA_SEARAD_NE USA_SEARAD_SE USA_SEARAD_SW USA_SEARAD_NW STORM_SPEED STORM_DIR
1992088N05188 1992 28 EP CP HALI 1992-03-28 06:00:00 TS 5.20000 -172.200 25 hurdat_epa main 2095 2095 O_____________ hurdat_epa CP021992 5.20000 -172.200 TD 25 -1 6 265
1992088N05188 1992 28 EP CP HALI 1992-03-28 09:00:00 TS 5.17171 -172.493 main 2095 2095 P_____________ CP021992 5.13256 -172.543 TD 25 -1 5 266
1992088N05188 1992 28 EP CP HALI 1992-03-28 12:00:00 TS 5.16667 -172.733 25 hurdat_epa main 2095 2095 O_____________ hurdat_epa CP021992 5.10000 -172.800 TD 25 -1 4 274
1992088N05188 1992 28 EP CP HALI 1992-03-28 15:00:00 TS 5.20165 -172.887 main 2095 2095 P_____________ CP021992 5.12747 -172.923 TD 27 -1 3 290
1992088N05188 1992 28 EP CP HALI 1992-03-28 18:00:00 TS 5.26154 -173.000 30 hurdat_epa main 2106 2106 O_____________ hurdat_epa CP021992 5.20000 -173.000 TD 30 -1 3 298
1992088N05188 1992 28 EP CP HALI 1992-03-28 21:00:00 TS 5.33536 -173.139 main 2106 2106 P_____________ CP021992 5.30000 -173.143 TD 30 -1 3 298
1992088N05188 1992 28 EP CP HALI 1992-03-29 00:00:00 TS 5.40667 -173.273 30 hurdat_epa main 2118 2118 O_____________ hurdat_epa CP021992 5.40000 -173.300 TD 30 -1 3 295
1992088N05188 1992 28 EP CP HALI 1992-03-29 03:00:00 TS 5.45312 -173.388 main 2129 2129 P_____________ CP021992 5.45000 -173.450 TD 30 -1 3 297
1992088N05188 1992 28 EP CP HALI 1992-03-29 06:00:00 TS 5.52500 -173.500 30 hurdat_epa main 2130 2130 O_____________ hurdat_epa CP021992 5.50000 -173.600 TD 30 -1 3 310
1992088N05188 1992 28 EP CP HALI 1992-03-29 09:00:00 TS 5.65687 -173.630 main 2152 2152 P_____________ CP021992 5.59250 -173.750 TD 35 0 4 315
1992088N05188 1992 28 EP CP HALI 1992-03-29 12:00:00 TS 5.80000 -173.775 40 hurdat_epa main 2165 2165 O_____________ hurdat_epa CP021992 5.70000 -173.900 TS 40 0 4 310
1992088N05188 1992 28 EP CP HALI 1992-03-29 15:00:00 TS 5.89622 -173.917 main 2176 2176 P_____________ CP021992 5.79248 -174.035 TS 42 0 4 302
1992088N05188 1992 28 EP CP HALI 1992-03-29 18:00:00 TS 6.00000 -174.100 45 hurdat_epa main 2189 2189 O_____________ hurdat_epa CP021992 5.90000 -174.200 TS 45 0 5 300
1992088N05188 1992 28 EP CP HALI 1992-03-29 21:00:00 TS 6.15316 -174.366 main 2214 2214 P_____________ CP021992 6.02751 -174.435 TS 42 0 6 301
1992088N05188 1992 28 EP CP HALI 1992-03-30 00:00:00 TS 6.32500 -174.650 40 hurdat_epa main 2228 2228 O_____________ hurdat_epa CP021992 6.20000 -174.700 TS 40 0 6 303
1992088N05188 1992 28 EP CP HALI 1992-03-30 03:00:00 TS 6.49500 -174.894 main 2252 2252 P_____________ CP021992 6.45751 -174.972 TS 37 0 6 306
1992088N05188 1992 28 EP CP HALI 1992-03-30 06:00:00 TS 6.65000 -175.100 35 hurdat_epa main 2277 2266 O_____________ hurdat_epa CP021992 6.70000 -175.200 TS 35 0 5 307
1992088N05188 1992 28 EP CP HALI 1992-03-30 09:00:00 TS 6.77374 -175.273 main 2291 2291 P_____________ CP021992 6.82248 -175.323 TS 32 -1 4 307
1992088N05188 1992 28 EP CP HALI 1992-03-30 12:00:00 TS 6.87500 -175.400 30 hurdat_epa main 2303 2303 O_____________ hurdat_epa CP021992 6.90000 -175.400 TD 30 -1 3 312
1992088N05188 1992 28 EP CP HALI 1992-03-30 15:00:00 TS 6.96500 -175.486 main 2316 2316 P_____________ CP021992 6.99252 -175.492 TD 27 -1 2 319
1992088N05188 1992 28 EP CP HALI 1992-03-30 18:00:00 TS 7.05000 -175.550 25 hurdat_epa main 2327 O_____________ hurdat_epa CP021992 7.10000 -175.600 TD 25 -1 2 319

IBTrACS Databaseについて

本データベースは、米国NOAAが公開する1842年以降の世界の熱帯低気圧のベストトラックデータアーカイブInternational Best Track Archive for Climate Stewardship (IBTrACS)を、ウェブで閲覧しやすい形式に変換したものです。

最終更新日:2021-12-08